Time;durP1;ratioP1;P1;durP2;ratioP2;P2;SDS_P1;SDS_P2;PMS_P1;PMS_P2;Temp;Humidity;BMP_temperature;BMP_pressure;BME280_temperature;BME280_humidity;BME280_pressure;Samples;Min_cycle;Max_cycle;Signal;HPM_P1;HPM_P2
2022/08/20 00:00:54;;;;;;;10.30;2.27;;;15.40;99.90;;;;;;4977049;28;20190;-69
2022/08/20 00:03:37;;;;;;;7.60;1.50;;;15.30;99.90;;;;;;4976680;28;20232;-69
2022/08/20 00:09:27;;;;;;;7.93;1.83;;;15.20;99.90;;;;;;4975759;28;20182;-70
2022/08/20 00:11:54;;;;;;;3.67;1.50;;;15.50;99.90;;;;;;4976477;28;20556;-69
2022/08/20 00:14:21;;;;;;;8.27;1.90;;;15.50;99.90;;;;;;4976941;28;20191;-69
2022/08/20 00:16:49;;;;;;;3.93;1.20;;;15.40;99.90;;;;;;4976100;28;20578;-69
2022/08/20 00:19:17;;;;;;;4.77;1.13;;;15.40;99.90;;;;;;4976032;28;20270;-68
2022/08/20 00:21:44;;;;;;;2.63;0.87;;;15.40;99.90;;;;;;4976200;28;20174;-69
2022/08/20 00:24:11;;;;;;;3.83;1.40;;;15.40;99.90;;;;;;4976302;28;20183;-68
2022/08/20 00:26:39;;;;;;;2.47;0.90;;;15.40;99.90;;;;;;4976144;28;20525;-68
2022/08/20 00:29:06;;;;;;;4.50;1.20;;;15.50;99.90;;;;;;4958485;28;20322;-68
2022/08/20 00:31:34;;;;;;;5.43;1.27;;;15.40;99.90;;;;;;4975990;28;20181;-68
2022/08/20 00:34:01;;;;;;;6.13;1.23;;;15.40;99.90;;;;;;4976269;28;20180;-68
2022/08/20 00:36:28;;;;;;;7.00;1.20;;;15.50;99.90;;;;;;4975780;28;20692;-68
2022/08/20 00:38:56;;;;;;;4.27;1.10;;;15.60;99.90;;;;;;4975858;28;20587;-69
2022/08/20 00:41:27;;;;;;;5.37;1.20;;;15.60;99.90;;;;;;4974659;28;20525;-69
2022/08/20 00:44:20;;;;;;;4.63;1.50;;;15.70;99.90;;;;;;4976048;28;20290;-69
2022/08/20 00:46:49;;;;;;;2.80;1.00;;;15.90;99.90;;;;;;4958307;28;20237;-70
2022/08/20 00:49:24;;;;;;;3.10;1.33;;;16.00;99.90;;;;;;4975701;28;20172;-69
2022/08/20 00:52:02;;;;;;;3.57;1.00;;;16.10;99.90;;;;;;4975644;28;20193;-69
2022/08/20 00:54:44;;;;;;;7.33;1.20;;;16.00;99.90;;;;;;4976067;28;20181;-69
2022/08/20 00:57:22;;;;;;;4.83;1.20;;;15.90;99.90;;;;;;4975475;28;20215;-69
2022/08/20 00:59:51;;;;;;;4.23;0.90;;;15.80;99.90;;;;;;4975704;28;20257;-70
2022/08/20 01:02:20;;;;;;;3.87;1.00;;;15.90;99.90;;;;;;4975422;28;20210;-69
2022/08/20 01:04:57;;;;;;;5.83;1.20;;;15.90;99.90;;;;;;4975382;28;20189;-70
2022/08/20 01:07:36;;;;;;;3.37;0.93;;;15.80;99.90;;;;;;4975936;28;20189;-70
2022/08/20 01:10:15;;;;;;;7.70;1.27;;;15.90;99.90;;;;;;4958102;28;20273;-69
2022/08/20 01:12:47;;;;;;;4.77;0.90;;;15.80;99.90;;;;;;4975323;28;20175;-70
2022/08/20 01:15:17;;;;;;;4.60;1.00;;;15.70;99.90;;;;;;4975469;28;20179;-69
2022/08/20 01:17:49;;;;;;;3.40;1.00;;;15.80;99.90;;;;;;4975127;28;20659;-69
2022/08/20 01:20:27;;;;;;;1.70;0.97;;;15.80;99.90;;;;;;4975295;28;20173;-70
2022/08/20 01:25:48;;;;;;;2.07;1.20;;;15.90;99.90;;;;;;4975009;28;20190;-69
2022/08/20 01:28:20;;;;;;;2.93;1.40;;;15.70;99.90;;;;;;4975390;28;20179;-68
2022/08/20 01:30:47;;;;;;;3.63;1.07;;;15.50;99.90;;;;;;4975415;28;20170;-69
2022/08/20 01:33:17;;;;;;;5.50;1.53;;;15.40;99.90;;;;;;4996047;28;20209;-68
2022/08/20 01:35:45;;;;;;;4.53;1.17;;;15.40;99.90;;;;;;4998929;28;20183;-69
2022/08/20 01:38:13;;;;;;;4.30;1.27;;;15.20;99.90;;;;;;4986983;28;20207;-69
2022/08/20 01:41:04;;;;;;;4.17;1.00;;;15.10;99.90;;;;;;4979391;28;20172;-68
2022/08/20 01:43:32;;;;;;;5.60;1.50;;;15.00;99.90;;;;;;4978921;28;20229;-68
2022/08/20 01:46:00;;;;;;;5.17;1.33;;;15.00;99.90;;;;;;4974886;28;20174;-68
2022/08/20 01:48:27;;;;;;;3.83;1.17;;;14.90;99.90;;;;;;4974553;28;20519;-69
2022/08/20 01:51:07;;;;;;;6.90;1.40;;;14.90;99.90;;;;;;4974662;28;20182;-69
2022/08/20 01:53:41;;;;;;;4.70;1.27;;;14.80;99.90;;;;;;4974357;28;20187;-69
2022/08/20 01:56:13;;;;;;;3.70;1.57;;;14.80;99.90;;;;;;4974483;28;20257;-69
2022/08/20 01:58:45;;;;;;;8.47;1.50;;;14.80;99.90;;;;;;4957188;28;20193;-70
2022/08/20 02:01:24;;;;;;;3.93;2.17;;;14.80;99.90;;;;;;4974354;28;20561;-69
2022/08/20 02:03:52;;;;;;;2.67;1.00;;;14.80;99.90;;;;;;4974420;28;20200;-69
2022/08/20 02:06:24;;;;;;;5.03;1.47;;;14.90;99.90;;;;;;4974775;28;20175;-69
2022/08/20 02:08:54;;;;;;;3.60;1.40;;;14.90;99.90;;;;;;4974116;28;20205;-68
2022/08/20 02:11:22;;;;;;;6.93;1.70;;;15.00;99.90;;;;;;4974451;28;20186;-70
2022/08/20 02:13:51;;;;;;;6.70;1.40;;;15.10;99.90;;;;;;4974213;28;20175;-69
2022/08/20 02:16:28;;;;;;;5.50;1.50;;;15.10;99.90;;;;;;4974201;28;20203;-69
2022/08/20 02:18:59;;;;;;;3.03;1.20;;;15.20;99.90;;;;;;4974143;28;20227;-69
2022/08/20 02:21:30;;;;;;;4.63;1.20;;;15.30;99.90;;;;;;4974639;28;20173;-70
2022/08/20 02:23:59;;;;;;;4.47;1.20;;;15.50;99.90;;;;;;4974299;28;20250;-68
2022/08/20 02:26:28;;;;;;;4.00;2.20;;;15.60;99.90;;;;;;4974177;28;20558;-70
2022/08/20 02:28:56;;;;;;;4.43;1.80;;;15.80;99.90;;;;;;4973995;28;20176;-69
2022/08/20 02:31:24;;;;;;;4.43;2.07;;;16.00;99.90;;;;;;4974298;28;20230;-70
2022/08/20 02:33:51;;;;;;;4.97;1.80;;;16.20;99.90;;;;;;4974128;28;20228;-70
2022/08/20 02:36:20;;;;;;;6.63;2.07;;;16.20;99.90;;;;;;4974152;28;20218;-71
2022/08/20 02:39:08;;;;;;;6.33;1.50;;;16.20;99.90;;;;;;4973989;28;20194;-70
2022/08/20 02:41:38;;;;;;;8.40;2.27;;;16.10;99.90;;;;;;4974356;28;20262;-69
2022/08/20 02:44:06;;;;;;;5.93;1.43;;;16.10;99.90;;;;;;4941177;28;20221;-69
2022/08/20 02:46:36;;;;;;;7.37;2.30;;;16.20;99.90;;;;;;4956559;28;20530;-69
2022/08/20 02:49:04;;;;;;;3.37;2.00;;;16.20;99.90;;;;;;4973729;28;20190;-70
2022/08/20 02:51:32;;;;;;;4.70;1.80;;;16.10;99.90;;;;;;4973609;28;20244;-69
2022/08/20 02:53:59;;;;;;;6.03;2.00;;;16.10;99.90;;;;;;4971128;28;20616;-70
2022/08/20 02:56:28;;;;;;;5.97;1.43;;;16.30;99.90;;;;;;4955753;28;20667;-72
2022/08/20 02:58:56;;;;;;;5.40;1.63;;;16.40;99.90;;;;;;4973712;28;20323;-72
2022/08/20 03:01:23;;;;;;;9.50;2.70;;;16.60;99.90;;;;;;4974372;28;20215;-72
2022/08/20 03:03:51;;;;;;;8.03;1.80;;;16.60;99.90;;;;;;4974274;28;20619;-72
2022/08/20 03:06:20;;;;;;;6.07;1.50;;;16.80;99.90;;;;;;4973890;28;20659;-73
2022/08/20 03:08:48;;;;;;;5.40;1.60;;;16.70;99.90;;;;;;4975760;28;20202;-73
2022/08/20 03:11:16;;;;;;;7.80;1.43;;;16.50;99.90;;;;;;4976474;28;20182;-72
2022/08/20 03:13:43;;;;;;;6.60;1.80;;;16.60;99.90;;;;;;4980493;28;20237;-68
2022/08/20 03:16:11;;;;;;;9.33;2.60;;;16.60;99.90;;;;;;4995325;28;20185;-70
2022/08/20 03:18:42;;;;;;;6.67;2.00;;;16.70;99.90;;;;;;4977312;28;20239;-70
2022/08/20 03:21:11;;;;;;;9.23;2.47;;;16.70;99.90;;;;;;4975789;28;20618;-71
2022/08/20 03:23:40;;;;;;;6.07;1.70;;;16.70;99.90;;;;;;4975861;28;20186;-71
2022/08/20 03:26:10;;;;;;;4.87;2.00;;;16.70;99.90;;;;;;4975263;28;20190;-69
2022/08/20 03:28:38;;;;;;;4.97;2.23;;;16.70;99.90;;;;;;4975203;28;20613;-70
2022/08/20 03:31:06;;;;;;;4.07;1.73;;;16.80;99.90;;;;;;4975522;28;20183;-70
2022/08/20 03:33:33;;;;;;;6.33;1.87;;;16.80;99.90;;;;;;4975045;28;20241;-71
2022/08/20 03:36:01;;;;;;;5.30;1.60;;;16.80;99.90;;;;;;4975508;28;20312;-70
2022/08/20 03:38:28;;;;;;;2.93;1.17;;;16.90;99.90;;;;;;4975717;28;20179;-67
2022/08/20 03:40:56;;;;;;;3.13;1.33;;;16.90;99.90;;;;;;4974646;28;20187;-68
2022/08/20 03:43:24;;;;;;;3.70;1.27;;;17.30;99.90;;;;;;4975474;28;20176;-69
2022/08/20 03:45:51;;;;;;;2.77;1.00;;;18.30;99.90;;;;;;4975406;28;20182;-67
2022/08/20 03:48:20;;;;;;;3.77;1.47;;;19.30;99.90;;;;;;4975213;28;20220;-67
2022/08/20 03:50:49;;;;;;;4.13;1.23;;;19.80;99.90;;;;;;4975440;28;20708;-67
2022/08/20 03:53:17;;;;;;;5.67;1.20;;;20.20;99.90;;;;;;4975282;28;20191;-72
2022/08/20 03:55:47;;;;;;;4.20;1.60;;;20.40;99.90;;;;;;4957722;28;20561;-71
2022/08/20 03:58:16;;;;;;;3.77;1.53;;;20.80;96.10;;;;;;4975171;28;20220;-68
2022/08/20 04:00:46;;;;;;;3.87;1.30;;;20.50;95.50;;;;;;4957882;28;20529;-68
2022/08/20 04:03:16;;;;;;;2.47;1.20;;;20.40;95.10;;;;;;4975257;28;20180;-67
2022/08/20 04:05:44;;;;;;;6.03;1.40;;;19.90;97.60;;;;;;4975026;28;20178;-67
2022/08/20 04:08:15;;;;;;;6.97;1.20;;;19.70;97.80;;;;;;4973982;28;20183;-68
2022/08/20 04:10:44;;;;;;;5.83;1.60;;;19.50;99.90;;;;;;4975084;28;20182;-69
2022/08/20 04:13:12;;;;;;;11.70;1.37;;;19.10;99.90;;;;;;4974967;28;20211;-69
2022/08/20 04:15:40;;;;;;;5.63;1.70;;;19.00;99.90;;;;;;4975073;28;20627;-68
2022/08/20 04:18:11;;;;;;;4.73;1.50;;;18.90;99.90;;;;;;4974571;28;20589;-68
2022/08/20 04:20:41;;;;;;;4.43;1.20;;;19.50;99.90;;;;;;4974514;28;20185;-69
2022/08/20 04:23:10;;;;;;;5.43;1.43;;;20.20;99.90;;;;;;4974430;28;20192;-67
2022/08/20 04:25:41;;;;;;;6.20;1.43;;;20.60;98.20;;;;;;4974423;28;20191;-69
2022/08/20 04:28:15;;;;;;;2.47;1.00;;;20.70;97.50;;;;;;4974709;28;20172;-68
2022/08/20 04:30:43;;;;;;;2.70;1.10;;;20.80;98.70;;;;;;4974116;28;20224;-67
2022/08/20 04:33:10;;;;;;;5.23;1.40;;;20.80;92.90;;;;;;4974829;28;20182;-68
2022/08/20 04:35:38;;;;;;;3.57;1.20;;;20.50;95.00;;;;;;4974313;28;20227;-69
2022/08/20 04:38:10;;;;;;;4.57;1.57;;;20.40;96.50;;;;;;4957241;28;20806;-67
2022/08/20 04:40:57;;;;;;;6.40;1.50;;;20.40;96.20;;;;;;4957747;28;20226;-69
2022/08/20 04:43:37;;;;;;;3.73;1.23;;;20.50;97.80;;;;;;4959637;28;20731;-68
2022/08/20 04:46:10;;;;;;;3.60;1.57;;;20.50;99.90;;;;;;4957553;28;20184;-67
2022/08/20 04:48:39;;;;;;;5.07;1.43;;;20.60;99.90;;;;;;4974322;28;20238;-68
2022/08/20 04:51:08;;;;;;;5.63;1.43;;;20.40;99.90;;;;;;4974129;28;20276;-68
2022/08/20 04:53:35;;;;;;;4.67;1.27;;;20.30;98.20;;;;;;4973813;28;20189;-71
2022/08/20 04:56:03;;;;;;;4.90;1.10;;;19.70;99.90;;;;;;4974071;28;20264;-69
2022/08/20 04:58:34;;;;;;;2.63;1.13;;;18.80;99.90;;;;;;4972936;28;20195;-69
2022/08/20 05:01:06;;;;;;;4.53;1.40;;;18.50;99.90;;;;;;4975173;28;20237;-67
2022/08/20 05:03:36;;;;;;;8.70;1.93;;;18.40;99.90;;;;;;4977304;28;20195;-68
2022/08/20 05:06:06;;;;;;;6.20;1.63;;;18.50;99.90;;;;;;4973889;28;20187;-66
2022/08/20 05:08:34;;;;;;;6.43;1.70;;;18.40;99.90;;;;;;4973808;28;20564;-68
2022/08/20 05:11:02;;;;;;;5.87;1.87;;;18.20;99.90;;;;;;4973587;28;20222;-69
2022/08/20 05:13:29;;;;;;;5.53;1.43;;;18.00;99.90;;;;;;4973393;28;20187;-69
2022/08/20 05:16:00;;;;;;;6.60;1.40;;;18.10;99.90;;;;;;4973593;28;20186;-69
2022/08/20 05:18:32;;;;;;;2.53;1.50;;;18.20;99.90;;;;;;4973586;28;20231;-69
2022/08/20 05:21:07;;;;;;;2.77;1.30;;;18.50;99.90;;;;;;4973477;28;20280;-68
2022/08/20 05:23:41;;;;;;;4.63;1.50;;;18.80;99.90;;;;;;4973663;28;20195;-69
2022/08/20 05:26:10;;;;;;;3.70;1.40;;;18.80;99.90;;;;;;4955935;28;20191;-69
2022/08/20 05:28:40;;;;;;;9.37;1.53;;;18.90;99.90;;;;;;4973312;28;20245;-69
2022/08/20 05:31:08;;;;;;;3.70;1.20;;;19.00;99.90;;;;;;4973452;28;20705;-69
2022/08/20 05:33:38;;;;;;;3.60;1.30;;;19.00;99.90;;;;;;4973245;28;20179;-70
2022/08/20 05:36:07;;;;;;;5.10;1.40;;;19.10;99.90;;;;;;4973354;28;20184;-67
2022/08/20 05:38:36;;;;;;;4.67;1.50;;;19.20;99.90;;;;;;4973395;28;20185;-67
2022/08/20 05:41:05;;;;;;;9.17;1.60;;;19.20;99.90;;;;;;4955813;28;20194;-68
2022/08/20 05:43:34;;;;;;;4.50;1.60;;;19.20;99.90;;;;;;4972804;28;20333;-68
2022/08/20 05:46:01;;;;;;;6.87;1.40;;;19.00;99.90;;;;;;4972675;28;20183;-71
2022/08/20 05:48:29;;;;;;;5.40;1.60;;;18.80;99.90;;;;;;4973149;28;20176;-67
2022/08/20 05:50:59;;;;;;;4.13;1.80;;;18.70;99.90;;;;;;4972841;28;20179;-69
2022/08/20 05:53:27;;;;;;;5.33;1.20;;;18.60;99.90;;;;;;4972628;28;20718;-69
2022/08/20 05:55:55;;;;;;;10.63;1.97;;;18.60;99.90;;;;;;4972568;28;20191;-70
2022/08/20 05:58:29;;;;;;;6.60;1.80;;;18.60;99.90;;;;;;4973113;28;20230;-68
2022/08/20 06:01:02;;;;;;;3.27;1.27;;;18.40;99.90;;;;;;4972906;28;20195;-69
2022/08/20 06:06:16;;;;;;;3.93;1.23;;;18.20;99.90;;;;;;4972331;28;20724;-68
2022/08/20 06:08:44;;;;;;;4.27;1.60;;;18.00;99.90;;;;;;4954757;28;20190;-69
2022/08/20 06:11:11;;;;;;;6.00;1.67;;;17.80;99.90;;;;;;4972305;28;20179;-71
2022/08/20 06:13:38;;;;;;;5.17;1.50;;;17.70;99.90;;;;;;4972452;28;20183;-69
2022/08/20 06:16:06;;;;;;;6.23;1.47;;;17.60;99.90;;;;;;4971738;28;20265;-68
2022/08/20 06:18:35;;;;;;;5.17;1.60;;;17.50;99.90;;;;;;4972143;28;20237;-68
2022/08/20 06:21:03;;;;;;;1.80;1.13;;;17.50;99.90;;;;;;4955612;28;20337;-68
2022/08/20 06:23:30;;;;;;;6.67;1.43;;;17.40;99.90;;;;;;4972461;28;20281;-68
2022/08/20 06:25:58;;;;;;;4.23;2.07;;;17.50;99.90;;;;;;4972304;28;20554;-68
2022/08/20 06:28:26;;;;;;;2.73;1.47;;;17.40;99.90;;;;;;4972228;28;20176;-69
2022/08/20 06:30:53;;;;;;;5.63;1.80;;;17.40;99.90;;;;;;4939637;28;20191;-68
2022/08/20 06:33:21;;;;;;;6.77;1.37;;;17.40;99.90;;;;;;4971902;28;20640;-68
2022/08/20 06:35:48;;;;;;;5.57;1.57;;;17.40;99.90;;;;;;4972689;28;20175;-71
2022/08/20 06:38:15;;;;;;;7.63;1.83;;;17.30;99.90;;;;;;4973389;28;20210;-71
2022/08/20 06:40:43;;;;;;;6.30;1.30;;;17.20;99.90;;;;;;4975868;28;20182;-67
2022/08/20 06:43:10;;;;;;;9.33;1.40;;;17.20;99.90;;;;;;4976421;28;20539;-69
2022/08/20 06:45:39;;;;;;;12.23;2.87;;;17.30;99.90;;;;;;4975432;28;20179;-69
2022/08/20 06:48:09;;;;;;;4.30;1.20;;;17.40;99.90;;;;;;4976243;28;20599;-67
2022/08/20 06:50:44;;;;;;;3.63;1.67;;;17.50;99.90;;;;;;4975519;28;20270;-68
2022/08/20 06:53:15;;;;;;;3.57;1.07;;;17.60;99.90;;;;;;4975656;28;20182;-69
2022/08/20 06:55:48;;;;;;;3.07;1.13;;;17.70;99.90;;;;;;4976350;28;20191;-69
2022/08/20 06:58:15;;;;;;;1.90;1.00;;;17.60;99.90;;;;;;4976258;28;20686;-69
2022/08/20 07:00:44;;;;;;;5.53;0.87;;;17.50;99.90;;;;;;4974993;28;20179;-69
2022/08/20 07:03:13;;;;;;;1.37;0.50;;;17.40;99.90;;;;;;4975118;28;20739;-68
2022/08/20 07:05:46;;;;;;;0.60;0.50;;;17.30;99.90;;;;;;4975780;28;20191;-69
2022/08/20 07:08:17;;;;;;;0.67;0.40;;;17.20;99.90;;;;;;4975655;28;20179;-68
2022/08/20 07:10:44;;;;;;;2.97;0.50;;;17.10;99.90;;;;;;4976187;28;20184;-72
2022/08/20 07:13:15;;;;;;;0.53;0.40;;;17.00;99.90;;;;;;4975804;28;20195;-71
2022/08/20 07:15:44;;;;;;;1.90;0.50;;;16.90;99.90;;;;;;4975972;28;20194;-68
2022/08/20 07:18:13;;;;;;;1.23;0.40;;;16.90;99.90;;;;;;4975676;28;20239;-68
2022/08/20 07:20:41;;;;;;;0.30;0.30;;;16.80;99.90;;;;;;4958393;28;20195;-69
2022/08/20 07:23:10;;;;;;;0.40;0.40;;;16.70;99.90;;;;;;4958313;28;20195;-68
2022/08/20 07:25:40;;;;;;;2.17;0.60;;;16.60;99.90;;;;;;4975876;28;20186;-69
2022/08/20 07:28:14;;;;;;;0.30;0.30;;;16.50;99.90;;;;;;4975486;28;20330;-68
2022/08/20 07:33:29;;;;;;;0.80;0.40;;;16.30;99.90;;;;;;4976069;28;20201;-72
2022/08/20 07:36:03;;;;;;;0.63;0.50;;;16.20;99.90;;;;;;4938751;29;20561;-69
2022/08/20 07:38:31;;;;;;;1.10;0.50;;;16.20;99.90;;;;;;4956419;29;20556;-68
2022/08/20 07:41:04;;;;;;;1.23;0.50;;;16.10;99.90;;;;;;4959817;28;20217;-68
2022/08/20 07:43:33;;;;;;;0.60;0.53;;;16.10;99.90;;;;;;4958052;28;20285;-68
2022/08/20 07:46:06;;;;;;;1.03;0.57;;;16.00;99.90;;;;;;4975573;28;20642;-68
2022/08/20 07:48:35;;;;;;;0.50;0.50;;;15.90;99.90;;;;;;4975076;28;20194;-69
2022/08/20 07:51:04;;;;;;;0.40;0.40;;;15.90;99.90;;;;;;4974734;28;20168;-68
2022/08/20 07:53:34;;;;;;;0.53;0.53;;;15.90;99.90;;;;;;4958329;28;20620;-68
2022/08/20 07:56:06;;;;;;;1.07;0.57;;;15.80;99.90;;;;;;4975126;28;20306;-67
2022/08/20 07:58:35;;;;;;;0.80;0.50;;;15.70;99.90;;;;;;4975156;28;20232;-69
2022/08/20 08:01:04;;;;;;;1.80;1.40;;;15.60;99.90;;;;;;4975084;28;20191;-68
2022/08/20 08:03:32;;;;;;;0.60;0.60;;;15.50;99.90;;;;;;4958124;28;20901;-69
2022/08/20 08:06:00;;;;;;;1.03;0.60;;;15.50;99.90;;;;;;4974751;28;20179;-67
2022/08/20 08:08:30;;;;;;;0.53;0.53;;;15.40;99.90;;;;;;4974255;28;20213;-68
2022/08/20 08:11:01;;;;;;;0.50;0.50;;;15.30;99.90;;;;;;4958359;28;20166;-68
2022/08/20 08:13:34;;;;;;;0.60;0.60;;;15.30;99.90;;;;;;4975165;28;20178;-71
2022/08/20 08:16:04;;;;;;;0.70;0.70;;;15.30;99.90;;;;;;4974777;28;20186;-71
2022/08/20 08:18:39;;;;;;;0.80;0.63;;;15.30;99.90;;;;;;4974617;28;20228;-71
2022/08/20 08:21:08;;;;;;;1.77;0.60;;;15.30;99.90;;;;;;4974848;28;20182;-71
2022/08/20 08:23:36;;;;;;;0.70;0.70;;;15.30;99.90;;;;;;4957301;28;20182;-69
2022/08/20 08:26:03;;;;;;;1.10;0.70;;;15.30;99.90;;;;;;4974795;28;20179;-67
2022/08/20 08:28:31;;;;;;;0.73;0.60;;;15.20;99.90;;;;;;4974603;28;20210;-68
2022/08/20 08:30:58;;;;;;;1.40;0.70;;;15.30;99.90;;;;;;4974718;28;20294;-67
2022/08/20 08:33:31;;;;;;;0.50;0.50;;;15.30;99.90;;;;;;4973899;28;20195;-69
2022/08/20 08:36:03;;;;;;;0.73;0.67;;;15.30;99.90;;;;;;4973785;28;20183;-69
2022/08/20 08:38:33;;;;;;;1.50;0.60;;;15.30;99.90;;;;;;4974028;28;20232;-68
2022/08/20 08:41:28;;;;;;;1.63;0.70;;;15.30;99.90;;;;;;4974382;28;20193;-69
2022/08/20 08:44:06;;;;;;;0.90;0.90;;;15.30;99.90;;;;;;4966327;28;20260;-68
2022/08/20 08:46:39;;;;;;;1.47;1.17;;;15.20;99.90;;;;;;4955193;29;20320;-68
2022/08/20 08:49:09;;;;;;;1.43;1.33;;;15.20;99.90;;;;;;4969523;28;20630;-69
2022/08/20 08:51:51;;;;;;;1.40;1.30;;;15.10;99.90;;;;;;4973911;28;20196;-67
2022/08/20 08:54:24;;;;;;;2.67;1.50;;;15.00;99.90;;;;;;4974292;28;20240;-69
2022/08/20 08:56:52;;;;;;;1.63;1.20;;;14.90;99.90;;;;;;4973651;28;20244;-69
2022/08/20 08:59:23;;;;;;;1.63;1.10;;;14.90;99.90;;;;;;4974224;28;20182;-68
2022/08/20 09:01:56;;;;;;;1.33;1.23;;;14.90;99.90;;;;;;4955733;28;20523;-68
2022/08/20 09:04:37;;;;;;;1.17;0.97;;;14.80;99.90;;;;;;4974015;28;20217;-68
2022/08/20 09:07:10;;;;;;;1.63;1.10;;;14.70;99.90;;;;;;4974170;28;20189;-68
2022/08/20 09:09:41;;;;;;;1.40;1.30;;;14.60;99.90;;;;;;4974015;28;20642;-69
2022/08/20 09:12:16;;;;;;;1.53;1.30;;;14.60;99.90;;;;;;4973666;28;20191;-69
2022/08/20 09:14:47;;;;;;;1.67;1.30;;;14.50;99.90;;;;;;4956519;28;20185;-68
2022/08/20 09:17:16;;;;;;;1.13;0.93;;;14.40;99.90;;;;;;4956542;28;20683;-68
2022/08/20 09:19:44;;;;;;;2.20;1.40;;;14.40;99.90;;;;;;4973510;28;20678;-68
2022/08/20 09:22:16;;;;;;;3.90;1.60;;;14.30;99.90;;;;;;4973845;28;20182;-67
2022/08/20 09:24:44;;;;;;;1.27;1.17;;;14.30;99.90;;;;;;4973118;28;20678;-71
2022/08/20 09:27:14;;;;;;;2.17;1.50;;;14.10;99.90;;;;;;4973581;28;20240;-68
2022/08/20 09:29:42;;;;;;;1.80;1.40;;;13.90;99.90;;;;;;4973391;28;20190;-69
2022/08/20 09:32:20;;;;;;;1.27;1.00;;;13.80;99.90;;;;;;4973667;28;20182;-68
2022/08/20 09:34:58;;;;;;;1.20;1.03;;;13.60;99.90;;;;;;5129938;27;20532;-68
2022/08/20 09:37:28;;;;;;;3.07;0.97;;;13.40;99.90;;;;;;5091868;28;20185;-69
2022/08/20 09:39:56;;;;;;;1.97;1.40;;;13.20;99.90;;;;;;5109607;28;20185;-68
2022/08/20 09:42:30;;;;;;;1.30;1.20;;;13.00;99.90;;;;;;5109549;28;20174;-71
2022/08/20 09:44:58;;;;;;;1.33;1.13;;;13.00;99.90;;;;;;5108742;28;20197;-67
2022/08/20 09:47:27;;;;;;;1.10;1.03;;;12.80;99.90;;;;;;5109297;28;20215;-68
2022/08/20 09:49:55;;;;;;;2.03;1.20;;;12.70;99.90;;;;;;5108205;28;20253;-71
2022/08/20 09:52:30;;;;;;;1.70;1.27;;;12.60;99.90;;;;;;5089050;28;20186;-70
2022/08/20 09:55:01;;;;;;;1.47;1.13;;;12.50;99.90;;;;;;5088909;28;20188;-68
2022/08/20 09:57:30;;;;;;;3.40;1.40;;;12.40;99.90;;;;;;5106647;28;20193;-68
2022/08/20 10:00:07;;;;;;;1.23;1.10;;;12.40;99.90;;;;;;5109103;28;20204;-68
2022/08/20 10:02:34;;;;;;;1.63;1.23;;;12.30;99.90;;;;;;5103108;28;20177;-68
2022/08/20 10:05:03;;;;;;;3.33;1.20;;;12.10;99.90;;;;;;5088611;28;20232;-70
2022/08/20 10:07:30;;;;;;;2.37;1.57;;;12.00;99.90;;;;;;5088525;28;20172;-70
2022/08/20 10:09:58;;;;;;;2.97;1.83;;;11.80;99.90;;;;;;5088552;28;20264;-66
2022/08/20 10:12:29;;;;;;;1.60;1.40;;;11.70;99.90;;;;;;5089195;28;20386;-69
2022/08/20 10:14:57;;;;;;;2.37;1.47;;;11.60;99.90;;;;;;5108881;28;20283;-68
2022/08/20 10:17:24;;;;;;;3.23;2.00;;;11.50;99.90;;;;;;5109065;28;20259;-68
2022/08/20 10:19:52;;;;;;;2.77;1.60;;;11.40;99.90;;;;;;5108914;28;20209;-69
2022/08/20 10:22:20;;;;;;;1.60;1.50;;;11.30;99.90;;;;;;5094393;28;20176;-68
2022/08/20 10:24:48;;;;;;;2.27;1.43;;;11.30;99.90;;;;;;5088434;28;20188;-68
2022/08/20 10:27:15;;;;;;;2.47;1.70;;;11.30;99.90;;;;;;5088034;28;20180;-67
2022/08/20 10:29:43;;;;;;;1.97;1.50;;;11.30;99.90;;;;;;5088514;28;20179;-68
2022/08/20 10:32:13;;;;;;;3.10;1.60;;;11.30;99.90;;;;;;5088302;28;20181;-71
2022/08/20 10:34:42;;;;;;;2.80;1.80;;;11.20;99.90;;;;;;5087622;28;20782;-67
2022/08/20 10:37:19;;;;;;;2.30;1.90;;;11.10;99.90;;;;;;5093438;28;20198;-69
2022/08/20 10:39:48;;;;;;;2.00;1.33;;;11.20;99.90;;;;;;5086735;28;20193;-71
2022/08/20 10:42:16;;;;;;;3.90;1.67;;;11.10;99.90;;;;;;5088011;28;20182;-67
2022/08/20 10:44:44;;;;;;;4.40;1.90;;;11.00;99.90;;;;;;5082999;28;20594;-71
2022/08/20 10:47:21;;;;;;;2.83;1.60;;;10.90;99.90;;;;;;5075871;28;20176;-67
2022/08/20 10:49:51;;;;;;;2.20;1.53;;;10.80;99.90;;;;;;5074076;28;20176;-67
2022/08/20 10:52:19;;;;;;;1.57;1.40;;;10.80;99.90;;;;;;5074108;28;20670;-67
2022/08/20 10:54:47;;;;;;;2.40;1.70;;;10.80;99.90;;;;;;5074039;28;20216;-68
2022/08/20 10:57:27;;;;;;;5.57;2.20;;;10.70;99.90;;;;;;5073957;28;20182;-70
2022/08/20 10:59:58;;;;;;;2.60;1.70;;;10.70;99.90;;;;;;5087048;28;20262;-68
2022/08/20 11:02:26;;;;;;;3.27;2.10;;;10.70;99.90;;;;;;5074192;28;20180;-70
2022/08/20 11:04:55;;;;;;;3.60;2.20;;;10.60;99.90;;;;;;5093981;28;20214;-68
2022/08/20 11:07:30;;;;;;;5.53;2.60;;;10.60;99.90;;;;;;5094041;28;20560;-68
2022/08/20 11:09:59;;;;;;;3.83;2.47;;;10.50;99.90;;;;;;5094043;28;20202;-68
2022/08/20 11:12:27;;;;;;;2.87;2.17;;;10.50;99.90;;;;;;5094049;28;20183;-69
2022/08/20 11:14:55;;;;;;;2.90;2.30;;;10.60;99.90;;;;;;5093906;28;20672;-71
2022/08/20 11:17:26;;;;;;;5.23;2.20;;;10.60;99.90;;;;;;5093895;28;20255;-68
2022/08/20 11:19:55;;;;;;;4.40;2.03;;;10.60;99.90;;;;;;5074882;28;20183;-69
2022/08/20 11:22:23;;;;;;;3.33;2.20;;;10.60;99.90;;;;;;5073652;28;20952;-71
2022/08/20 11:24:50;;;;;;;3.37;2.20;;;10.50;99.90;;;;;;5073556;28;20180;-75
2022/08/20 11:27:26;;;;;;;3.53;2.10;;;10.50;99.90;;;;;;5083404;28;20225;-68
2022/08/20 11:29:56;;;;;;;3.03;2.10;;;10.50;99.90;;;;;;5077647;28;20196;-68
2022/08/20 11:32:24;;;;;;;3.30;2.40;;;10.50;99.90;;;;;;5073539;28;20622;-71
2022/08/20 11:34:52;;;;;;;3.73;2.30;;;10.40;99.90;;;;;;5055162;28;20318;-67
2022/08/20 11:37:24;;;;;;;3.13;2.20;;;10.40;99.90;;;;;;5081751;28;20188;-69
2022/08/20 11:39:54;;;;;;;2.73;2.13;;;10.30;99.90;;;;;;5093513;28;20550;-71
2022/08/20 11:42:22;;;;;;;3.00;2.13;;;10.30;99.90;;;;;;5075325;28;20185;-69
2022/08/20 11:44:49;;;;;;;8.40;3.00;;;10.20;99.90;;;;;;5094223;28;20623;-71
2022/08/20 11:47:30;;;;;;;4.20;2.67;;;10.10;99.90;;;;;;5093955;28;20183;-68
2022/08/20 11:50:09;;;;;;;3.50;2.57;;;10.10;99.90;;;;;;5059205;28;20256;-71
2022/08/20 11:52:37;;;;;;;3.83;2.50;;;10.00;99.90;;;;;;5076444;28;20214;-67
2022/08/20 11:55:09;;;;;;;2.90;2.30;;;10.00;99.90;;;;;;5093548;28;20176;-69
2022/08/20 11:57:41;;;;;;;3.80;2.53;;;9.90;99.90;;;;;;5055251;28;20197;-70
2022/08/20 12:00:13;;;;;;;4.30;2.90;;;9.80;99.90;;;;;;5071863;28;20679;-68
2022/08/20 12:02:42;;;;;;;5.13;2.60;;;9.80;99.90;;;;;;5072952;28;20172;-67
2022/08/20 12:05:11;;;;;;;6.50;2.90;;;9.80;99.90;;;;;;5072760;28;20183;-68
2022/08/20 12:07:42;;;;;;;4.73;3.13;;;9.80;99.90;;;;;;5072690;28;20192;-70
2022/08/20 12:10:10;;;;;;;3.63;2.50;;;9.80;99.90;;;;;;5072812;28;20177;-69
2022/08/20 12:12:39;;;;;;;3.67;2.63;;;9.80;99.90;;;;;;5055354;28;20276;-67
2022/08/20 12:15:11;;;;;;;5.43;2.90;;;9.80;99.90;;;;;;5073013;28;20320;-70
2022/08/20 12:17:39;;;;;;;3.70;3.00;;;9.80;99.90;;;;;;5072574;28;20738;-70
2022/08/20 12:20:12;;;;;;;3.60;3.03;;;9.70;99.90;;;;;;5072600;28;20173;-67
2022/08/20 12:22:41;;;;;;;5.30;3.00;;;9.70;99.90;;;;;;5079728;28;20168;-68
2022/08/20 12:25:09;;;;;;;5.37;3.27;;;9.80;99.90;;;;;;5085002;28;20191;-68
2022/08/20 12:27:38;;;;;;;4.37;3.20;;;10.00;99.90;;;;;;5077952;28;20179;-67
2022/08/20 12:30:10;;;;;;;6.23;2.87;;;10.10;99.90;;;;;;5092247;28;20245;-68
2022/08/20 12:32:39;;;;;;;3.77;2.60;;;10.20;99.90;;;;;;5091593;28;20186;-68
2022/08/20 12:35:09;;;;;;;5.20;3.30;;;10.30;99.90;;;;;;5092467;28;20243;-68
2022/08/20 12:37:37;;;;;;;4.27;3.23;;;10.40;99.90;;;;;;5092399;28;20656;-67
2022/08/20 12:40:09;;;;;;;5.13;3.00;;;10.50;99.90;;;;;;5092423;28;20178;-68
2022/08/20 12:42:37;;;;;;;4.67;2.87;;;10.60;99.90;;;;;;5091964;28;20179;-67
2022/08/20 12:45:06;;;;;;;4.30;2.80;;;10.70;99.90;;;;;;5092278;28;20180;-68
2022/08/20 12:47:37;;;;;;;4.17;3.03;;;10.80;99.90;;;;;;5075891;28;20184;-67
2022/08/20 12:50:11;;;;;;;5.00;3.47;;;10.80;99.90;;;;;;5084937;28;20195;-68
2022/08/20 12:52:40;;;;;;;5.47;3.37;;;10.80;99.90;;;;;;5091882;28;20264;-67
2022/08/20 12:55:09;;;;;;;4.23;3.17;;;10.80;99.90;;;;;;5092112;28;20586;-68
2022/08/20 12:57:43;;;;;;;9.83;3.40;;;10.80;99.90;;;;;;5092199;28;20273;-68
2022/08/20 13:00:14;;;;;;;4.77;3.00;;;10.90;99.90;;;;;;5092060;28;20186;-67
2022/08/20 13:02:42;;;;;;;5.47;3.50;;;10.90;99.90;;;;;;5092470;28;20177;-71
2022/08/20 13:05:11;;;;;;;6.27;3.57;;;10.80;99.90;;;;;;5089649;28;20262;-67
2022/08/20 13:07:40;;;;;;;6.17;3.60;;;10.90;99.90;;;;;;5071344;28;20176;-70
2022/08/20 13:10:11;;;;;;;4.37;3.03;;;10.90;99.90;;;;;;5071737;28;20608;-67
2022/08/20 13:12:39;;;;;;;4.27;3.13;;;11.00;99.90;;;;;;5076798;28;20184;-67
2022/08/20 13:15:07;;;;;;;3.93;3.03;;;11.00;99.90;;;;;;5091950;28;20183;-68